Time;durP1;ratioP1;P1;durP2;ratioP2;P2;SDS_P1;SDS_P2;PMS_P1;PMS_P2;Temp;Humidity;BMP_temperature;BMP_pressure;BME280_temperature;BME280_humidity;BME280_pressure;Samples;Min_cycle;Max_cycle;Signal;HPM_P1;HPM_P2
2023/08/13 00:00:24;;;;;;;15.27;5.22;;;29.20;99.90;;;;;;5003308;23;20360;-49
2023/08/13 00:02:49;;;;;;;11.98;4.47;;;29.20;99.90;;;;;;4990829;28;20041;-48
2023/08/13 00:05:15;;;;;;;12.07;5.70;;;29.20;99.90;;;;;;4993912;28;20049;-49
2023/08/13 00:07:41;;;;;;;15.15;5.20;;;29.20;99.90;;;;;;4995688;28;20053;-50
2023/08/13 00:10:07;;;;;;;15.18;5.38;;;29.20;99.90;;;;;;4995629;28;20347;-49
2023/08/13 00:12:33;;;;;;;12.00;4.75;;;29.20;99.90;;;;;;4995513;28;20022;-48
2023/08/13 00:15:00;;;;;;;11.25;4.88;;;29.20;99.90;;;;;;4995607;28;20061;-47
2023/08/13 00:17:26;;;;;;;18.00;6.75;;;29.20;99.90;;;;;;5009733;28;20033;-47
2023/08/13 00:19:51;;;;;;;14.10;6.15;;;29.20;99.90;;;;;;4995695;28;20085;-49
2023/08/13 00:22:17;;;;;;;10.48;5.97;;;29.10;99.90;;;;;;4995478;28;20030;-51
2023/08/13 00:24:43;;;;;;;11.25;6.07;;;29.10;99.90;;;;;;4995031;28;20113;-51
2023/08/13 00:27:09;;;;;;;10.27;6.03;;;29.10;99.90;;;;;;4994606;28;20430;-47
2023/08/13 00:29:37;;;;;;;16.70;5.97;;;29.10;99.90;;;;;;4995197;28;20560;-48
2023/08/13 00:32:03;;;;;;;12.60;5.93;;;29.10;99.90;;;;;;4993692;28;20065;-50
2023/08/13 00:34:29;;;;;;;10.05;5.78;;;29.10;99.90;;;;;;4993612;28;20037;-49
2023/08/13 00:36:55;;;;;;;13.55;6.32;;;29.10;99.90;;;;;;4993601;28;20121;-50
2023/08/13 00:39:20;;;;;;;14.88;4.13;;;29.10;99.90;;;;;;4994399;28;20023;-50
2023/08/13 00:41:46;;;;;;;10.60;5.10;;;29.10;99.90;;;;;;4989159;28;20110;-48
2023/08/13 00:44:12;;;;;;;16.30;5.70;;;29.00;99.90;;;;;;4993184;28;20670;-50
2023/08/13 00:46:38;;;;;;;14.45;5.15;;;29.00;99.90;;;;;;4993073;28;20022;-50
2023/08/13 00:49:04;;;;;;;16.58;4.60;;;29.10;99.90;;;;;;4994702;28;20019;-50
2023/08/13 00:51:29;;;;;;;11.48;5.10;;;29.10;99.90;;;;;;4994823;28;20169;-50
2023/08/13 00:53:57;;;;;;;9.05;5.55;;;29.10;99.90;;;;;;4994762;28;20085;-50
2023/08/13 00:56:23;;;;;;;14.80;5.93;;;29.00;99.90;;;;;;4994806;28;20030;-52
2023/08/13 00:58:50;;;;;;;10.73;4.45;;;29.00;99.90;;;;;;4993851;28;20031;-50
2023/08/13 01:01:15;;;;;;;11.55;4.47;;;29.00;99.90;;;;;;5020172;23;20059;-51
2023/08/13 01:03:41;;;;;;;12.23;4.60;;;29.00;99.90;;;;;;4973337;28;20030;-51
2023/08/13 01:06:15;;;;;;;10.23;3.90;;;28.90;99.90;;;;;;4974149;28;20464;-51
2023/08/13 01:08:47;;;;;;;9.05;3.67;;;28.90;99.90;;;;;;4983725;28;20030;-51
2023/08/13 01:11:26;;;;;;;9.57;4.57;;;28.90;99.90;;;;;;4974648;28;20324;-50
2023/08/13 01:14:07;;;;;;;14.68;4.32;;;28.90;99.90;;;;;;4975105;28;20101;-51
2023/08/13 01:16:35;;;;;;;9.05;3.90;;;28.90;99.90;;;;;;4973726;28;20031;-51
2023/08/13 01:19:01;;;;;;;7.38;2.88;;;28.80;99.90;;;;;;4974643;28;20027;-51
2023/08/13 01:21:27;;;;;;;11.82;3.05;;;28.90;99.90;;;;;;4974783;28;20109;-51
2023/08/13 01:23:53;;;;;;;8.75;3.40;;;28.90;99.90;;;;;;4974858;28;20065;-50
2023/08/13 01:26:23;;;;;;;5.97;3.67;;;28.80;99.90;;;;;;4974925;28;20023;-51
2023/08/13 01:29:06;;;;;;;10.27;4.43;;;28.80;99.90;;;;;;4974730;28;20082;-50
2023/08/13 01:31:35;;;;;;;7.47;4.40;;;28.80;99.90;;;;;;4974790;28;20057;-50
2023/08/13 01:34:02;;;;;;;9.30;4.30;;;28.80;99.90;;;;;;4974644;28;20033;-50
2023/08/13 01:36:30;;;;;;;17.17;5.70;;;28.90;99.90;;;;;;4974536;28;20484;-51
2023/08/13 01:38:58;;;;;;;12.50;5.55;;;28.80;99.90;;;;;;4972545;28;20031;-50
2023/08/13 01:41:32;;;;;;;12.02;4.43;;;28.80;99.90;;;;;;4973702;28;20081;-50
2023/08/13 01:43:58;;;;;;;5.80;3.97;;;28.80;99.90;;;;;;4972423;28;20089;-50
2023/08/13 01:46:23;;;;;;;8.98;4.78;;;28.90;99.90;;;;;;4973983;28;20476;-51
2023/08/13 01:48:49;;;;;;;10.80;4.78;;;28.80;99.90;;;;;;4982416;28;20564;-51
2023/08/13 01:51:15;;;;;;;14.95;4.88;;;28.80;99.90;;;;;;4990282;28;20396;-51
2023/08/13 01:53:41;;;;;;;6.88;4.63;;;28.80;99.90;;;;;;4974714;28;20396;-50
2023/08/13 01:56:06;;;;;;;8.88;4.63;;;28.80;99.90;;;;;;4973681;28;20039;-50
2023/08/13 01:58:32;;;;;;;7.47;3.75;;;28.80;99.90;;;;;;4974455;28;20071;-50
2023/08/13 02:01:00;;;;;;;8.73;4.30;;;28.80;99.90;;;;;;4999082;23;20049;-59
2023/08/13 02:03:26;;;;;;;10.05;4.03;;;28.80;99.90;;;;;;5032737;28;20025;-60
2023/08/13 02:05:52;;;;;;;8.32;4.07;;;28.80;99.90;;;;;;5031160;28;20045;-60
2023/08/13 02:08:17;;;;;;;5.55;3.95;;;28.80;99.90;;;;;;5031249;28;20021;-60
2023/08/13 02:10:43;;;;;;;5.57;3.90;;;28.80;99.90;;;;;;5032937;28;20465;-60
2023/08/13 02:13:09;;;;;;;12.43;3.97;;;28.80;99.90;;;;;;5033063;28;20458;-61
2023/08/13 02:15:35;;;;;;;9.80;3.88;;;28.80;99.90;;;;;;5032769;28;20103;-61
2023/08/13 02:18:00;;;;;;;8.93;3.88;;;28.80;99.90;;;;;;5032836;28;20036;-59
2023/08/13 02:20:26;;;;;;;9.82;3.50;;;28.80;99.90;;;;;;5032885;28;20101;-60
2023/08/13 02:22:52;;;;;;;8.90;3.28;;;28.80;99.90;;;;;;5032790;28;20057;-60
2023/08/13 02:25:17;;;;;;;9.02;3.97;;;28.80;99.90;;;;;;5032870;28;20033;-60
2023/08/13 02:27:43;;;;;;;8.18;3.15;;;28.80;99.90;;;;;;5032514;28;20025;-60
2023/08/13 02:30:10;;;;;;;9.90;3.00;;;28.80;99.90;;;;;;5032536;28;20029;-60
2023/08/13 02:32:36;;;;;;;9.20;2.60;;;28.80;99.90;;;;;;5032540;28;20116;-60
2023/08/13 02:35:02;;;;;;;7.18;3.15;;;28.80;99.90;;;;;;5032536;28;20033;-59
2023/08/13 02:37:27;;;;;;;5.22;2.35;;;28.80;99.90;;;;;;5032596;28;20034;-60
2023/08/13 02:39:53;;;;;;;5.05;2.95;;;28.80;99.90;;;;;;5032456;28;20021;-61
2023/08/13 02:42:19;;;;;;;4.93;2.63;;;28.70;99.90;;;;;;5032325;28;20370;-60
2023/08/13 02:44:45;;;;;;;5.95;2.20;;;28.70;99.90;;;;;;5032278;28;20026;-60
2023/08/13 02:47:11;;;;;;;5.87;2.60;;;28.70;99.90;;;;;;5032391;28;20378;-60
2023/08/13 02:49:37;;;;;;;13.55;2.90;;;28.70;99.90;;;;;;5032158;28;20273;-60
2023/08/13 02:52:03;;;;;;;12.38;2.58;;;28.70;99.90;;;;;;5031963;28;20029;-60
2023/08/13 02:54:29;;;;;;;6.60;2.67;;;28.70;99.90;;;;;;5030599;28;20031;-59
2023/08/13 02:56:54;;;;;;;10.00;2.63;;;28.70;99.90;;;;;;5032027;28;20041;-60
2023/08/13 02:59:20;;;;;;;9.52;2.88;;;28.70;99.90;;;;;;5031858;28;20168;-60
2023/08/13 03:01:46;;;;;;;5.72;2.80;;;28.60;99.90;;;;;;4998112;22;20098;-51
2023/08/13 03:04:12;;;;;;;9.05;2.95;;;28.70;99.90;;;;;;4954200;28;20094;-50
2023/08/13 03:06:37;;;;;;;6.40;2.60;;;28.60;99.90;;;;;;4953949;28;20023;-51
2023/08/13 03:09:03;;;;;;;7.00;3.20;;;28.60;99.90;;;;;;4954066;29;20476;-50
2023/08/13 03:11:29;;;;;;;6.35;3.05;;;28.60;99.90;;;;;;4954244;29;20376;-50
2023/08/13 03:13:55;;;;;;;3.42;2.58;;;28.60;99.90;;;;;;4954163;28;20011;-50
2023/08/13 03:16:21;;;;;;;5.22;3.67;;;28.60;99.90;;;;;;4953925;28;20511;-51
2023/08/13 03:18:47;;;;;;;5.65;3.05;;;28.60;99.90;;;;;;4953856;28;20030;-53
2023/08/13 03:21:13;;;;;;;7.72;3.90;;;28.70;99.90;;;;;;4952815;28;20183;-51
2023/08/13 03:23:38;;;;;;;12.15;4.25;;;28.60;99.90;;;;;;4953916;28;20540;-52
2023/08/13 03:26:04;;;;;;;4.68;3.53;;;28.60;99.90;;;;;;4953627;29;20496;-52
2023/08/13 03:28:30;;;;;;;7.65;4.03;;;28.60;99.90;;;;;;4953906;28;20057;-52
2023/08/13 03:31:00;;;;;;;5.75;3.17;;;28.60;99.90;;;;;;4952482;28;20023;-52
2023/08/13 03:33:26;;;;;;;7.88;4.22;;;28.60;99.90;;;;;;4953705;28;20023;-53
2023/08/13 03:35:52;;;;;;;6.55;3.20;;;28.60;99.90;;;;;;4953483;28;20595;-52
2023/08/13 03:38:17;;;;;;;8.32;3.85;;;28.60;99.90;;;;;;4953494;29;20229;-52
2023/08/13 03:40:43;;;;;;;9.93;4.30;;;28.60;99.90;;;;;;4953172;28;20090;-51
2023/08/13 03:43:09;;;;;;;13.60;4.50;;;28.60;99.90;;;;;;4953667;29;20031;-52
2023/08/13 03:45:35;;;;;;;13.98;3.65;;;28.70;99.90;;;;;;4953520;29;20512;-51
2023/08/13 03:48:00;;;;;;;7.50;3.80;;;28.60;99.90;;;;;;4953807;29;20031;-51
2023/08/13 03:50:26;;;;;;;10.00;3.38;;;28.60;99.90;;;;;;4953589;28;20027;-52
2023/08/13 03:52:52;;;;;;;6.90;3.67;;;28.60;99.90;;;;;;4953514;28;20102;-51
2023/08/13 03:55:18;;;;;;;9.05;3.42;;;28.60;99.90;;;;;;4952177;29;20012;-52
2023/08/13 03:57:43;;;;;;;9.63;3.70;;;28.60;99.90;;;;;;4953555;29;20035;-53
2023/08/13 04:00:09;;;;;;;8.65;3.55;;;28.60;99.90;;;;;;4953460;29;20555;-52
2023/08/13 04:02:39;;;;;;;6.22;3.60;;;28.60;99.90;;;;;;4953624;29;20058;-51
2023/08/13 04:05:06;;;;;;;7.28;3.28;;;28.60;99.90;;;;;;4953469;28;20352;-52
2023/08/13 04:07:32;;;;;;;7.70;3.20;;;28.60;99.90;;;;;;4953736;28;20341;-52
2023/08/13 04:09:57;;;;;;;9.00;3.70;;;28.60;99.90;;;;;;4953596;29;20031;-52
2023/08/13 04:12:23;;;;;;;10.02;3.92;;;28.60;99.90;;;;;;4952265;28;20483;-52
2023/08/13 04:14:49;;;;;;;7.38;3.17;;;28.60;99.90;;;;;;4951326;28;20401;-52
2023/08/13 04:17:14;;;;;;;8.05;4.32;;;28.60;99.90;;;;;;4952791;28;20321;-51
2023/08/13 04:19:40;;;;;;;6.72;3.50;;;28.60;99.90;;;;;;4953265;28;20035;-51
2023/08/13 04:22:06;;;;;;;8.00;3.90;;;28.60;99.90;;;;;;4953022;28;20070;-50
2023/08/13 04:24:32;;;;;;;5.82;3.75;;;28.60;99.90;;;;;;4953245;28;20019;-52
2023/08/13 04:26:57;;;;;;;5.70;3.38;;;28.60;99.90;;;;;;4952723;28;20380;-51
2023/08/13 04:29:23;;;;;;;7.70;3.65;;;28.60;99.90;;;;;;4952993;28;20143;-51
2023/08/13 04:31:49;;;;;;;9.10;3.83;;;28.60;99.90;;;;;;4952726;28;20031;-50
2023/08/13 04:34:15;;;;;;;6.53;3.97;;;28.60;99.90;;;;;;4953012;28;20090;-51
2023/08/13 04:36:41;;;;;;;7.43;5.30;;;28.60;99.90;;;;;;4952720;28;20126;-53
2023/08/13 04:39:06;;;;;;;7.72;3.97;;;28.60;99.90;;;;;;4952223;28;20102;-53
2023/08/13 04:41:32;;;;;;;7.53;4.10;;;28.60;99.90;;;;;;4951678;28;20031;-53
2023/08/13 04:43:58;;;;;;;11.95;3.72;;;28.60;99.90;;;;;;4952475;28;20031;-53
2023/08/13 04:46:23;;;;;;;7.80;4.28;;;28.60;99.90;;;;;;4953153;28;20030;-53
2023/08/13 04:48:49;;;;;;;8.02;5.35;;;28.60;99.90;;;;;;4953138;28;20480;-53
2023/08/13 04:51:15;;;;;;;9.32;4.18;;;28.60;99.90;;;;;;4953468;28;20095;-52
2023/08/13 04:53:42;;;;;;;9.50;3.97;;;28.60;99.90;;;;;;4956606;28;20035;-51
2023/08/13 04:56:08;;;;;;;9.63;4.22;;;28.60;99.90;;;;;;4955139;29;20039;-52
2023/08/13 04:58:34;;;;;;;8.73;4.50;;;28.60;99.90;;;;;;4956563;28;20381;-49
2023/08/13 05:01:01;;;;;;;9.30;4.47;;;28.60;99.90;;;;;;4970450;28;20065;-50
2023/08/13 05:03:27;;;;;;;6.68;3.85;;;28.50;99.90;;;;;;4970998;28;20078;-51
2023/08/13 05:05:53;;;;;;;6.95;4.28;;;28.50;99.90;;;;;;4956139;28;20023;-51
2023/08/13 05:08:18;;;;;;;10.02;4.25;;;28.50;99.90;;;;;;4971103;28;20027;-51
2023/08/13 05:10:45;;;;;;;9.35;4.55;;;28.50;99.90;;;;;;4956287;28;20038;-51
2023/08/13 05:13:13;;;;;;;8.60;4.27;;;28.50;99.90;;;;;;4956109;28;20162;-51
2023/08/13 05:15:39;;;;;;;7.55;4.05;;;28.50;99.90;;;;;;4955957;28;20499;-51
2023/08/13 05:18:05;;;;;;;9.32;4.55;;;28.50;99.90;;;;;;4956191;28;20071;-51
2023/08/13 05:20:31;;;;;;;8.80;4.47;;;28.50;99.90;;;;;;4955928;28;20443;-51
2023/08/13 05:22:57;;;;;;;8.32;4.63;;;28.50;99.90;;;;;;4955129;28;20039;-51
2023/08/13 05:25:23;;;;;;;9.52;4.57;;;28.50;99.90;;;;;;4955786;28;20479;-50
2023/08/13 05:27:49;;;;;;;8.63;4.00;;;28.50;99.90;;;;;;4955863;28;20031;-51
2023/08/13 05:30:14;;;;;;;7.90;4.40;;;28.50;99.90;;;;;;4955827;28;20059;-49
2023/08/13 05:32:40;;;;;;;10.82;4.78;;;28.50;99.90;;;;;;4955695;28;20031;-49
2023/08/13 05:35:06;;;;;;;8.25;4.43;;;28.50;99.90;;;;;;4955896;28;20484;-51
2023/08/13 05:37:33;;;;;;;5.85;4.18;;;28.50;99.90;;;;;;4955810;28;20095;-50
2023/08/13 05:39:58;;;;;;;6.53;4.85;;;28.50;99.90;;;;;;4955697;28;20023;-50
2023/08/13 05:42:24;;;;;;;8.35;4.22;;;28.50;99.90;;;;;;4970258;28;20087;-50
2023/08/13 05:44:50;;;;;;;7.80;4.75;;;28.40;99.90;;;;;;4955536;28;20027;-50
2023/08/13 05:47:16;;;;;;;6.38;3.95;;;28.40;99.90;;;;;;4955603;28;20024;-50
2023/08/13 05:49:41;;;;;;;10.15;5.30;;;28.50;99.90;;;;;;4955611;28;20027;-50
2023/08/13 05:52:07;;;;;;;10.35;5.38;;;28.40;99.90;;;;;;4955720;28;20094;-50
2023/08/13 05:54:33;;;;;;;7.90;4.78;;;28.50;99.90;;;;;;4955375;28;20062;-49
2023/08/13 05:56:58;;;;;;;7.20;4.95;;;28.50;99.90;;;;;;4955255;28;20039;-49
2023/08/13 05:59:24;;;;;;;8.65;5.57;;;28.40;99.90;;;;;;4955302;28;20492;-50
2023/08/13 06:01:50;;;;;;;10.57;5.88;;;28.40;99.90;;;;;;4954647;28;20154;-50
2023/08/13 06:04:16;;;;;;;9.88;5.03;;;28.40;99.90;;;;;;4955197;28;20368;-50
2023/08/13 06:06:41;;;;;;;7.85;5.03;;;28.40;99.90;;;;;;4955100;28;20031;-50
2023/08/13 06:09:08;;;;;;;7.88;4.13;;;28.40;99.90;;;;;;4955351;28;20032;-50
2023/08/13 06:11:34;;;;;;;8.68;4.70;;;28.40;99.90;;;;;;4955316;28;20419;-50
2023/08/13 06:14:00;;;;;;;7.63;5.13;;;28.40;99.90;;;;;;4954896;28;20035;-49
2023/08/13 06:16:26;;;;;;;10.77;4.15;;;28.50;99.90;;;;;;4954945;28;20099;-51
2023/08/13 06:18:52;;;;;;;7.85;4.25;;;28.40;99.90;;;;;;4954704;28;20030;-50
2023/08/13 06:21:17;;;;;;;8.00;4.10;;;28.40;99.90;;;;;;4969560;28;20408;-50
2023/08/13 06:23:44;;;;;;;7.15;4.63;;;28.40;99.90;;;;;;4954949;28;20558;-51
2023/08/13 06:26:09;;;;;;;7.28;4.07;;;28.40;99.90;;;;;;4955144;28;20031;-50
2023/08/13 06:28:35;;;;;;;7.47;5.07;;;28.40;99.90;;;;;;4954957;28;20031;-50
2023/08/13 06:31:02;;;;;;;10.80;4.45;;;28.40;99.90;;;;;;4954608;28;20042;-51
2023/08/13 06:33:28;;;;;;;9.63;5.07;;;28.50;99.90;;;;;;4954792;28;20058;-51
2023/08/13 06:35:53;;;;;;;10.68;4.45;;;28.50;99.90;;;;;;4954631;28;20530;-51
2023/08/13 06:38:19;;;;;;;10.10;4.40;;;28.50;99.90;;;;;;4954681;28;20114;-50
2023/08/13 06:40:45;;;;;;;7.38;4.80;;;28.50;99.90;;;;;;4954550;28;20051;-50
2023/08/13 06:43:11;;;;;;;7.72;5.18;;;28.50;99.90;;;;;;4954462;28;20031;-50
2023/08/13 06:45:37;;;;;;;17.23;6.17;;;28.50;99.90;;;;;;4954657;28;20026;-50
2023/08/13 06:48:04;;;;;;;12.02;5.72;;;28.60;99.90;;;;;;4954164;28;20362;-49
2023/08/13 06:50:31;;;;;;;9.32;5.25;;;28.50;99.90;;;;;;4954299;28;20023;-50
2023/08/13 06:52:58;;;;;;;15.30;6.28;;;28.50;99.90;;;;;;4954380;28;20479;-50
2023/08/13 06:55:24;;;;;;;14.13;8.40;;;28.60;99.90;;;;;;4954233;28;20114;-50
2023/08/13 06:57:50;;;;;;;10.18;6.03;;;28.60;99.90;;;;;;4954168;28;20031;-50
2023/08/13 07:00:16;;;;;;;10.00;6.72;;;28.60;99.90;;;;;;4954281;28;20448;-52
2023/08/13 07:02:41;;;;;;;12.43;5.85;;;28.60;99.90;;;;;;4954027;28;20078;-51
2023/08/13 07:05:11;;;;;;;13.52;6.30;;;28.60;99.90;;;;;;4954292;28;20102;-51
2023/08/13 07:07:37;;;;;;;11.13;5.50;;;28.60;99.90;;;;;;4954504;28;20342;-51
2023/08/13 07:10:04;;;;;;;15.68;6.03;;;28.60;99.90;;;;;;4954008;28;20132;-52
2023/08/13 07:12:30;;;;;;;8.13;4.70;;;28.60;99.90;;;;;;4954022;28;20035;-52
2023/08/13 07:14:55;;;;;;;13.43;5.68;;;28.60;99.90;;;;;;4953216;28;20082;-52
2023/08/13 07:17:21;;;;;;;8.75;5.55;;;28.60;99.90;;;;;;4953917;28;20046;-51
2023/08/13 07:19:49;;;;;;;11.65;5.30;;;28.60;99.90;;;;;;4954121;28;20027;-50
2023/08/13 07:22:14;;;;;;;;;;;28.60;99.90;;;;;;4954505;28;20070;-50
2023/08/13 07:24:40;;;;;;;9.77;5.25;;;28.70;99.90;;;;;;4954095;28;19910;-51
2023/08/13 07:27:06;;;;;;;15.18;7.50;;;28.60;99.90;;;;;;4953774;28;20425;-51
2023/08/13 07:29:31;;;;;;;12.38;7.07;;;28.70;99.90;;;;;;4953769;28;20042;-52
2023/08/13 07:31:57;;;;;;;11.13;6.70;;;28.70;99.90;;;;;;4953932;28;20361;-52
2023/08/13 07:34:23;;;;;;;13.95;8.48;;;28.70;99.90;;;;;;4953839;28;20045;-51
2023/08/13 07:36:48;;;;;;;11.68;8.70;;;28.80;99.90;;;;;;4953632;28;20480;-50
2023/08/13 07:39:16;;;;;;;12.90;8.45;;;28.70;99.90;;;;;;4953767;28;20476;-51
2023/08/13 07:41:43;;;;;;;15.45;9.23;;;28.80;99.90;;;;;;4954041;28;20376;-51
2023/08/13 07:44:09;;;;;;;14.73;8.48;;;28.80;99.90;;;;;;4953900;28;20019;-51
2023/08/13 07:46:34;;;;;;;15.65;8.02;;;28.80;99.90;;;;;;4953727;29;20031;-51
2023/08/13 07:49:00;;;;;;;15.38;7.65;;;28.80;99.90;;;;;;4953709;28;20027;-52
2023/08/13 07:51:26;;;;;;;15.55;7.15;;;28.80;99.90;;;;;;4953641;28;20479;-52
2023/08/13 07:53:51;;;;;;;13.75;8.48;;;28.80;99.90;;;;;;4953757;28;20467;-53
2023/08/13 07:56:17;;;;;;;16.38;8.50;;;28.90;99.90;;;;;;4953454;28;20455;-50
2023/08/13 07:58:43;;;;;;;12.55;8.23;;;28.80;99.90;;;;;;4953897;28;20031;-52
2023/08/13 08:01:09;;;;;;;10.23;7.55;;;28.90;99.90;;;;;;4968216;28;20051;-52
2023/08/13 08:03:34;;;;;;;10.00;6.22;;;28.90;99.90;;;;;;4953419;29;20058;-51
2023/08/13 08:06:00;;;;;;;21.05;7.25;;;28.90;99.90;;;;;;4953444;28;20027;-52
2023/08/13 08:08:26;;;;;;;15.00;6.20;;;28.90;99.90;;;;;;4968313;28;20436;-52
2023/08/13 08:10:52;;;;;;;12.90;7.18;;;28.90;99.90;;;;;;4968200;28;20507;-51
2023/08/13 08:13:17;;;;;;;14.77;7.18;;;28.90;99.90;;;;;;4968280;28;20054;-51
2023/08/13 08:15:43;;;;;;;13.38;7.90;;;28.90;99.90;;;;;;4953731;28;20058;-52
2023/08/13 08:18:09;;;;;;;12.25;7.80;;;28.90;99.90;;;;;;4953442;28;20439;-51
2023/08/13 08:20:35;;;;;;;10.18;6.82;;;29.00;99.90;;;;;;4953424;28;20027;-52
2023/08/13 08:23:01;;;;;;;9.10;6.20;;;29.00;99.90;;;;;;4953379;28;20038;-52
2023/08/13 08:25:27;;;;;;;11.73;5.93;;;29.00;99.90;;;;;;4954187;28;20027;-52
2023/08/13 08:27:53;;;;;;;9.40;6.03;;;29.00;99.90;;;;;;4956962;29;20426;-50
2023/08/13 08:30:19;;;;;;;10.73;5.80;;;29.00;99.90;;;;;;4956856;28;20114;-51
2023/08/13 08:32:45;;;;;;;7.95;5.60;;;29.00;99.90;;;;;;4957111;28;20150;-50
2023/08/13 08:35:10;;;;;;;7.82;5.78;;;29.00;99.90;;;;;;4971822;28;20066;-51
2023/08/13 08:37:36;;;;;;;11.48;5.63;;;29.00;99.90;;;;;;4971597;28;20050;-51
2023/08/13 08:40:04;;;;;;;7.93;5.70;;;29.00;99.90;;;;;;4956787;28;20484;-51
2023/08/13 08:42:30;;;;;;;;;;;29.00;99.90;;;;;;4957098;28;20035;-51
2023/08/13 08:44:59;;;;;;;7.57;5.32;;;29.00;99.90;;;;;;4956642;28;20270;-52
2023/08/13 08:47:25;;;;;;;7.07;5.07;;;29.10;99.90;;;;;;4956615;28;20459;-51
2023/08/13 08:49:53;;;;;;;12.20;5.45;;;29.00;99.90;;;;;;4955363;29;20106;-53
2023/08/13 08:52:19;;;;;;;12.43;6.00;;;29.10;99.90;;;;;;4956677;28;20023;-52
2023/08/13 08:54:47;;;;;;;7.95;4.45;;;29.10;99.90;;;;;;4956537;28;20031;-52
2023/08/13 08:57:13;;;;;;;10.77;4.97;;;29.10;99.90;;;;;;4956682;28;20090;-49
2023/08/13 08:59:38;;;;;;;10.70;5.53;;;29.10;99.90;;;;;;4956272;28;20028;-51
2023/08/13 09:02:05;;;;;;;10.65;4.88;;;29.10;99.90;;;;;;4956153;28;20051;-51
2023/08/13 09:04:31;;;;;;;9.77;5.78;;;29.10;99.90;;;;;;4971137;28;20333;-51
2023/08/13 09:07:02;;;;;;;12.38;5.35;;;29.10;99.90;;;;;;4956183;28;20027;-51
2023/08/13 09:09:30;;;;;;;10.35;5.32;;;29.20;99.90;;;;;;4956200;28;20102;-51
2023/08/13 09:11:56;;;;;;;11.60;5.38;;;29.20;99.90;;;;;;4956165;28;20027;-52
2023/08/13 09:14:23;;;;;;;6.28;5.03;;;29.20;99.90;;;;;;4956240;28;20031;-50
2023/08/13 09:16:55;;;;;;;8.02;4.97;;;29.20;99.90;;;;;;4956063;28;20043;-51
2023/08/13 09:19:24;;;;;;;6.57;5.03;;;29.20;99.90;;;;;;4956026;28;20484;-50
2023/08/13 09:21:55;;;;;;;11.70;4.65;;;29.20;99.90;;;;;;4970767;28;20032;-51
2023/08/13 09:24:32;;;;;;;13.38;4.40;;;29.20;99.90;;;;;;4970777;28;20031;-51
2023/08/13 09:26:58;;;;;;;;;;;29.20;99.90;;;;;;4956308;28;20027;-52
2023/08/13 09:29:24;;;;;;;10.45;4.57;;;29.20;99.90;;;;;;4955815;28;19961;-52
2023/08/13 09:31:50;;;;;;;11.20;5.45;;;29.20;99.90;;;;;;4955886;28;20058;-51
2023/08/13 09:34:18;;;;;;;11.50;5.00;;;29.20;99.90;;;;;;4955962;28;20039;-51
2023/08/13 09:36:44;;;;;;;9.63;4.88;;;29.20;99.90;;;;;;4955083;28;20035;-52
2023/08/13 09:39:10;;;;;;;9.15;4.10;;;29.20;99.90;;;;;;4955478;28;20668;-52
2023/08/13 09:41:36;;;;;;;10.25;4.40;;;29.20;99.90;;;;;;4955534;28;20030;-52
2023/08/13 09:44:10;;;;;;;12.18;5.00;;;29.20;99.90;;;;;;4955536;28;20376;-52
2023/08/13 09:46:36;;;;;;;6.95;4.97;;;29.20;99.90;;;;;;4954206;29;20034;-51
2023/08/13 09:49:04;;;;;;;9.85;4.80;;;29.20;99.90;;;;;;4955498;28;20031;-52
2023/08/13 09:51:31;;;;;;;;;;;29.30;99.90;;;;;;4955963;28;20039;-52
2023/08/13 09:54:36;;;;;;;12.77;5.15;;;29.30;99.90;;;;;;4955445;28;19906;-53
2023/08/13 09:57:03;;;;;;;9.73;4.65;;;29.30;99.90;;;;;;4958667;28;20372;-53
2023/08/13 09:59:33;;;;;;;8.52;4.28;;;29.40;99.90;;;;;;4955155;28;20027;-53
2023/08/13 10:01:59;;;;;;;10.68;5.13;;;29.40;99.90;;;;;;4969741;28;20044;-53
2023/08/13 10:04:26;;;;;;;13.77;4.70;;;29.40;99.90;;;;;;4954789;28;20042;-53
2023/08/13 10:06:55;;;;;;;8.52;4.10;;;29.40;99.90;;;;;;4954952;29;20023;-52
2023/08/13 10:09:22;;;;;;;10.43;4.22;;;29.40;99.90;;;;;;4953325;29;20046;-52
2023/08/13 10:11:48;;;;;;;7.53;4.72;;;29.40;99.90;;;;;;4955361;28;20469;-52
2023/08/13 10:14:15;;;;;;;11.75;4.40;;;29.40;99.90;;;;;;4955031;28;20091;-53
2023/08/13 10:16:41;;;;;;;8.63;4.18;;;29.40;99.90;;;;;;4954400;28;20035;-53
2023/08/13 10:19:08;;;;;;;14.57;4.70;;;29.40;99.90;;;;;;4954755;28;20033;-53
2023/08/13 10:21:37;;;;;;;11.82;5.18;;;29.40;99.90;;;;;;4954028;28;20042;-53
2023/08/13 10:24:05;;;;;;;8.45;4.57;;;29.50;99.90;;;;;;4954838;28;20019;-49
2023/08/13 10:26:31;;;;;;;9.90;4.50;;;29.50;99.90;;;;;;4953880;28;20059;-50
2023/08/13 10:28:57;;;;;;;6.53;3.97;;;29.50;99.90;;;;;;4954292;28;20098;-49
2023/08/13 10:31:23;;;;;;;7.85;4.63;;;29.60;99.90;;;;;;4954340;28;20111;-50
2023/08/13 10:34:12;;;;;;;5.70;4.30;;;29.60;99.90;;;;;;4954343;28;20023;-51
2023/08/13 10:36:52;;;;;;;7.72;4.85;;;29.60;99.90;;;;;;4966672;28;20509;-51
2023/08/13 10:39:35;;;;;;;12.32;5.05;;;29.60;99.90;;;;;;4952590;29;20027;-50
2023/08/13 10:42:22;;;;;;;14.18;5.10;;;29.60;99.90;;;;;;4952835;29;20043;-49
2023/08/13 10:44:48;;;;;;;13.05;5.43;;;29.60;99.90;;;;;;4953555;29;20039;-51
2023/08/13 10:47:14;;;;;;;13.93;5.22;;;29.70;99.90;;;;;;4954253;28;20039;-50
2023/08/13 10:49:41;;;;;;;7.55;5.13;;;29.70;99.90;;;;;;4954346;28;20106;-51
2023/08/13 10:52:06;;;;;;;9.23;5.20;;;29.70;99.90;;;;;;4954379;28;20472;-51
2023/08/13 10:54:33;;;;;;;10.20;5.18;;;29.70;99.90;;;;;;4954320;28;20082;-51
2023/08/13 10:57:00;;;;;;;12.10;5.47;;;29.70;99.90;;;;;;4954309;28;20040;-51
2023/08/13 10:59:30;;;;;;;;;;;29.70;99.90;;;;;;4954700;28;20023;-52
2023/08/13 11:02:16;;;;;;;13.07;5.50;;;29.70;99.90;;;;;;4954010;28;19972;-51
2023/08/13 11:04:45;;;;;;;12.93;5.00;;;29.80;99.90;;;;;;4953301;28;20082;-51
2023/08/13 11:07:11;;;;;;;8.82;5.38;;;29.80;99.90;;;;;;4953420;28;20055;-51
2023/08/13 11:09:38;;;;;;;10.13;4.65;;;29.80;99.90;;;;;;4953545;28;20029;-52
2023/08/13 11:12:05;;;;;;;7.53;5.20;;;29.80;99.90;;;;;;4953474;28;20031;-50
2023/08/13 11:14:32;;;;;;;8.10;5.57;;;29.90;99.90;;;;;;4953304;28;20066;-47
2023/08/13 11:16:58;;;;;;;9.10;4.55;;;29.80;99.90;;;;;;4953701;28;20039;-49
2023/08/13 11:19:25;;;;;;;15.80;5.03;;;29.90;99.90;;;;;;4953617;28;20455;-50
2023/08/13 11:21:51;;;;;;;8.65;4.70;;;29.90;99.90;;;;;;4953907;28;20031;-49
2023/08/13 11:24:17;;;;;;;8.68;3.83;;;29.90;99.90;;;;;;4952513;28;20407;-49
2023/08/13 11:26:44;;;;;;;14.13;4.70;;;29.90;99.90;;;;;;4953662;28;20098;-50
2023/08/13 11:29:10;;;;;;;6.65;4.20;;;29.90;99.90;;;;;;4953056;28;20176;-48
2023/08/13 11:31:38;;;;;;;8.82;4.03;;;29.90;99.90;;;;;;4953873;28;20345;-48
2023/08/13 11:34:04;;;;;;;10.98;3.75;;;30.00;99.90;;;;;;4953532;28;20039;-50
2023/08/13 11:36:30;;;;;;;11.70;6.70;;;30.00;99.90;;;;;;4953671;28;20498;-49
2023/08/13 11:38:56;;;;;;;13.27;4.85;;;30.00;99.90;;;;;;4953675;28;20110;-48
2023/08/13 11:41:22;;;;;;;9.52;3.80;;;30.00;99.90;;;;;;4953058;28;20035;-48
2023/08/13 11:43:54;;;;;;;16.42;3.88;;;30.00;99.90;;;;;;4951875;28;20423;-48
2023/08/13 11:46:21;;;;;;;14.48;5.72;;;30.00;99.90;;;;;;4953183;28;20031;-49
2023/08/13 11:48:54;;;;;;;10.40;5.68;;;29.90;99.90;;;;;;4952150;28;20493;-46
2023/08/13 11:51:25;;;;;;;11.90;4.78;;;29.90;99.90;;;;;;4946075;29;20036;-46
2023/08/13 11:53:51;;;;;;;8.13;4.07;;;30.00;99.90;;;;;;4949906;28;20030;-45
2023/08/13 11:56:18;;;;;;;10.63;5.07;;;30.00;99.90;;;;;;4949444;28;20035;-48
2023/08/13 11:58:44;;;;;;;;;;;30.00;99.90;;;;;;4950662;28;20055;-49
2023/08/13 12:01:12;;;;;;;9.30;4.70;;;30.00;99.90;;;;;;4949930;28;20061;-49
2023/08/13 12:03:43;;;;;;;11.45;4.70;;;30.00;99.90;;;;;;4953481;28;20031;-48
2023/08/13 12:06:10;;;;;;;10.15;4.55;;;30.00;99.90;;;;;;4940219;28;20074;-47
2023/08/13 12:08:36;;;;;;;6.30;3.40;;;30.00;99.90;;;;;;4937120;29;20024;-47
2023/08/13 12:11:02;;;;;;;8.98;4.32;;;30.00;99.90;;;;;;4937424;29;20062;-47
2023/08/13 12:13:30;;;;;;;7.22;4.70;;;29.90;99.90;;;;;;4952503;29;20023;-48
2023/08/13 12:15:56;;;;;;;8.65;4.57;;;29.90;99.90;;;;;;4951218;28;20360;-48
2023/08/13 12:18:22;;;;;;;13.60;6.43;;;29.90;99.90;;;;;;4938336;28;20167;-48
2023/08/13 12:20:48;;;;;;;11.93;3.90;;;29.90;99.90;;;;;;4936629;29;20126;-45
2023/08/13 12:23:14;;;;;;;9.90;4.28;;;29.90;99.90;;;;;;4936938;29;20470;-48
2023/08/13 12:25:39;;;;;;;6.10;3.28;;;29.90;99.90;;;;;;4953222;28;20046;-53
2023/08/13 12:28:05;;;;;;;7.40;3.50;;;29.90;99.90;;;;;;4953110;28;20027;-53
2023/08/13 12:30:31;;;;;;;18.27;4.25;;;29.80;99.90;;;;;;4953303;28;20035;-54
2023/08/13 12:32:57;;;;;;;9.23;3.70;;;29.70;99.90;;;;;;4949960;28;20031;-54
2023/08/13 12:35:23;;;;;;;10.20;3.20;;;29.70;99.90;;;;;;4953141;29;20029;-55
2023/08/13 12:37:49;;;;;;;6.65;2.78;;;29.60;99.90;;;;;;4955404;28;20031;-54
2023/08/13 12:40:16;;;;;;;10.90;3.75;;;29.60;99.90;;;;;;4956760;28;20074;-52